sensor_id;sensor_type;location;lat;lon;timestamp;P1;durP1;ratioP1;P2;durP2;ratioP2
70014;SDS011;57358;51.094;6.760;2023-04-08T00:00:15;10.57;;;7.18;;
70014;SDS011;57358;51.094;6.760;2023-04-08T00:02:42;9.05;;;8.23;;
70014;SDS011;57358;51.094;6.760;2023-04-08T00:05:08;11.93;;;6.40;;
70014;SDS011;57358;51.094;6.760;2023-04-08T00:07:35;16.98;;;8.30;;
70014;SDS011;57358;51.094;6.760;2023-04-08T00:10:02;10.75;;;7.95;;
70014;SDS011;57358;51.094;6.760;2023-04-08T00:12:29;16.05;;;7.45;;
70014;SDS011;57358;51.094;6.760;2023-04-08T00:14:55;8.95;;;6.13;;
70014;SDS011;57358;51.094;6.760;2023-04-08T00:17:24;14.52;;;9.48;;
70014;SDS011;57358;51.094;6.760;2023-04-08T00:19:52;10.65;;;7.47;;
70014;SDS011;57358;51.094;6.760;2023-04-08T00:22:18;11.10;;;8.07;;
70014;SDS011;57358;51.094;6.760;2023-04-08T00:24:45;23.20;;;9.38;;
70014;SDS011;57358;51.094;6.760;2023-04-08T00:27:11;17.05;;;8.35;;
70014;SDS011;57358;51.094;6.760;2023-04-08T00:29:37;13.05;;;9.20;;
70014;SDS011;57358;51.094;6.760;2023-04-08T00:32:04;10.23;;;8.02;;
70014;SDS011;57358;51.094;6.760;2023-04-08T00:34:30;9.32;;;7.93;;
70014;SDS011;57358;51.094;6.760;2023-04-08T00:36:56;10.77;;;7.10;;
70014;SDS011;57358;51.094;6.760;2023-04-08T00:39:23;13.43;;;8.27;;
70014;SDS011;57358;51.094;6.760;2023-04-08T00:41:49;13.13;;;8.15;;
70014;SDS011;57358;51.094;6.760;2023-04-08T00:44:16;8.63;;;7.80;;
70014;SDS011;57358;51.094;6.760;2023-04-08T00:46:42;14.40;;;8.52;;
70014;SDS011;57358;51.094;6.760;2023-04-08T00:49:09;18.27;;;8.00;;
70014;SDS011;57358;51.094;6.760;2023-04-08T00:51:35;14.20;;;9.52;;
70014;SDS011;57358;51.094;6.760;2023-04-08T00:54:02;15.15;;;7.95;;
70014;SDS011;57358;51.094;6.760;2023-04-08T00:56:32;10.65;;;9.32;;
70014;SDS011;57358;51.094;6.760;2023-04-08T00:58:59;10.63;;;9.20;;
70014;SDS011;57358;51.094;6.760;2023-04-08T01:04:39;7.55;;;6.93;;
70014;SDS011;57358;51.094;6.760;2023-04-08T01:07:14;13.05;;;8.93;;
70014;SDS011;57358;51.094;6.760;2023-04-08T01:09:45;9.40;;;8.38;;
70014;SDS011;57358;51.094;6.760;2023-04-08T01:12:19;11.07;;;7.47;;
70014;SDS011;57358;51.094;6.760;2023-04-08T01:14:54;15.48;;;8.15;;
70014;SDS011;57358;51.094;6.760;2023-04-08T01:17:26;9.18;;;7.88;;
70014;SDS011;57358;51.094;6.760;2023-04-08T01:19:55;8.32;;;7.50;;
70014;SDS011;57358;51.094;6.760;2023-04-08T01:22:36;8.38;;;7.50;;
70014;SDS011;57358;51.094;6.760;2023-04-08T01:25:13;8.48;;;7.45;;
70014;SDS011;57358;51.094;6.760;2023-04-08T01:27:42;8.77;;;7.80;;
70014;SDS011;57358;51.094;6.760;2023-04-08T01:30:10;8.77;;;7.72;;
70014;SDS011;57358;51.094;6.760;2023-04-08T01:32:37;9.38;;;7.85;;
70014;SDS011;57358;51.094;6.760;2023-04-08T01:35:06;9.40;;;8.35;;
70014;SDS011;57358;51.094;6.760;2023-04-08T01:37:34;9.90;;;7.60;;
70014;SDS011;57358;51.094;6.760;2023-04-08T01:40:02;10.57;;;7.75;;
70014;SDS011;57358;51.094;6.760;2023-04-08T01:42:31;10.57;;;7.28;;
70014;SDS011;57358;51.094;6.760;2023-04-08T01:44:58;11.43;;;8.90;;
70014;SDS011;57358;51.094;6.760;2023-04-08T01:47:26;9.07;;;8.18;;
70014;SDS011;57358;51.094;6.760;2023-04-08T01:49:54;14.07;;;8.95;;
70014;SDS011;57358;51.094;6.760;2023-04-08T01:52:22;9.98;;;7.28;;
70014;SDS011;57358;51.094;6.760;2023-04-08T01:54:50;7.80;;;6.25;;
70014;SDS011;57358;51.094;6.760;2023-04-08T01:57:18;11.50;;;8.27;;
70014;SDS011;57358;51.094;6.760;2023-04-08T01:59:55;14.20;;;7.90;;
70014;SDS011;57358;51.094;6.760;2023-04-08T02:04:52;25.00;;;7.45;;
70014;SDS011;57358;51.094;6.760;2023-04-08T02:07:19;11.95;;;8.60;;
70014;SDS011;57358;51.094;6.760;2023-04-08T02:09:46;9.95;;;7.07;;
70014;SDS011;57358;51.094;6.760;2023-04-08T02:12:13;12.57;;;8.82;;
70014;SDS011;57358;51.094;6.760;2023-04-08T02:14:39;11.82;;;8.35;;
70014;SDS011;57358;51.094;6.760;2023-04-08T02:17:10;16.65;;;7.82;;
70014;SDS011;57358;51.094;6.760;2023-04-08T02:19:51;10.35;;;7.72;;
70014;SDS011;57358;51.094;6.760;2023-04-08T02:22:25;13.80;;;7.97;;
70014;SDS011;57358;51.094;6.760;2023-04-08T02:25:13;11.15;;;7.95;;
70014;SDS011;57358;51.094;6.760;2023-04-08T02:27:41;7.88;;;7.25;;
70014;SDS011;57358;51.094;6.760;2023-04-08T02:30:10;8.82;;;7.72;;
70014;SDS011;57358;51.094;6.760;2023-04-08T02:32:38;10.18;;;6.80;;
70014;SDS011;57358;51.094;6.760;2023-04-08T02:35:05;19.48;;;8.60;;
70014;SDS011;57358;51.094;6.760;2023-04-08T02:37:33;7.93;;;7.15;;
70014;SDS011;57358;51.094;6.760;2023-04-08T02:39:59;9.50;;;8.18;;
70014;SDS011;57358;51.094;6.760;2023-04-08T02:42:26;9.32;;;7.43;;
70014;SDS011;57358;51.094;6.760;2023-04-08T02:44:52;9.50;;;7.55;;
70014;SDS011;57358;51.094;6.760;2023-04-08T02:47:18;7.75;;;7.00;;
70014;SDS011;57358;51.094;6.760;2023-04-08T02:49:45;7.65;;;6.88;;
70014;SDS011;57358;51.094;6.760;2023-04-08T02:52:11;7.70;;;6.95;;
70014;SDS011;57358;51.094;6.760;2023-04-08T02:54:38;9.30;;;7.35;;
70014;SDS011;57358;51.094;6.760;2023-04-08T02:57:04;8.15;;;7.40;;
70014;SDS011;57358;51.094;6.760;2023-04-08T02:59:30;7.80;;;7.07;;
70014;SDS011;57358;51.094;6.760;2023-04-08T03:01:57;10.65;;;7.85;;
70014;SDS011;57358;51.094;6.760;2023-04-08T03:04:23;7.38;;;6.65;;
70014;SDS011;57358;51.094;6.760;2023-04-08T03:06:50;8.88;;;8.07;;
70014;SDS011;57358;51.094;6.760;2023-04-08T03:09:16;11.55;;;7.07;;
70014;SDS011;57358;51.094;6.760;2023-04-08T03:11:43;11.38;;;9.45;;
70014;SDS011;57358;51.094;6.760;2023-04-08T03:14:09;8.60;;;7.88;;
70014;SDS011;57358;51.094;6.760;2023-04-08T03:16:36;11.52;;;7.53;;
70014;SDS011;57358;51.094;6.760;2023-04-08T03:19:02;10.90;;;7.60;;
70014;SDS011;57358;51.094;6.760;2023-04-08T03:21:29;7.88;;;7.05;;
70014;SDS011;57358;51.094;6.760;2023-04-08T03:23:56;9.98;;;6.72;;
70014;SDS011;57358;51.094;6.760;2023-04-08T03:26:23;11.52;;;7.63;;
70014;SDS011;57358;51.094;6.760;2023-04-08T03:28:54;9.57;;;8.45;;
70014;SDS011;57358;51.094;6.760;2023-04-08T03:31:20;8.70;;;7.15;;
70014;SDS011;57358;51.094;6.760;2023-04-08T03:33:47;11.85;;;8.77;;
70014;SDS011;57358;51.094;6.760;2023-04-08T03:36:13;20.00;;;10.60;;
70014;SDS011;57358;51.094;6.760;2023-04-08T03:38:40;8.05;;;7.32;;
70014;SDS011;57358;51.094;6.760;2023-04-08T03:41:07;11.13;;;9.13;;
70014;SDS011;57358;51.094;6.760;2023-04-08T03:43:33;13.95;;;8.70;;
70014;SDS011;57358;51.094;6.760;2023-04-08T03:46:03;10.30;;;8.50;;
70014;SDS011;57358;51.094;6.760;2023-04-08T03:48:29;21.98;;;8.40;;
70014;SDS011;57358;51.094;6.760;2023-04-08T03:50:55;12.15;;;9.35;;
70014;SDS011;57358;51.094;6.760;2023-04-08T03:53:22;12.40;;;10.10;;
70014;SDS011;57358;51.094;6.760;2023-04-08T03:55:49;12.55;;;10.15;;
70014;SDS011;57358;51.094;6.760;2023-04-08T03:58:18;12.02;;;10.00;;
70014;SDS011;57358;51.094;6.760;2023-04-08T04:00:44;15.48;;;7.47;;
70014;SDS011;57358;51.094;6.760;2023-04-08T04:03:10;12.55;;;8.85;;
70014;SDS011;57358;51.094;6.760;2023-04-08T04:05:38;21.90;;;8.85;;
70014;SDS011;57358;51.094;6.760;2023-04-08T04:08:05;11.43;;;8.45;;
70014;SDS011;57358;51.094;6.760;2023-04-08T04:10:32;12.25;;;8.98;;
70014;SDS011;57358;51.094;6.760;2023-04-08T04:12:58;8.98;;;8.18;;
70014;SDS011;57358;51.094;6.760;2023-04-08T04:15:27;11.75;;;8.65;;
70014;SDS011;57358;51.094;6.760;2023-04-08T04:17:54;18.33;;;10.55;;
70014;SDS011;57358;51.094;6.760;2023-04-08T04:20:20;18.38;;;9.75;;
70014;SDS011;57358;51.094;6.760;2023-04-08T04:22:47;10.23;;;7.80;;
70014;SDS011;57358;51.094;6.760;2023-04-08T04:25:13;13.18;;;9.32;;
70014;SDS011;57358;51.094;6.760;2023-04-08T04:27:39;8.18;;;7.07;;
70014;SDS011;57358;51.094;6.760;2023-04-08T04:30:06;12.98;;;8.32;;
70014;SDS011;57358;51.094;6.760;2023-04-08T04:32:34;17.17;;;10.23;;
70014;SDS011;57358;51.094;6.760;2023-04-08T04:35:01;13.93;;;10.27;;
70014;SDS011;57358;51.094;6.760;2023-04-08T04:37:27;17.48;;;10.93;;
70014;SDS011;57358;51.094;6.760;2023-04-08T04:39:53;20.20;;;10.25;;
70014;SDS011;57358;51.094;6.760;2023-04-08T04:42:20;18.35;;;9.63;;
70014;SDS011;57358;51.094;6.760;2023-04-08T04:44:46;13.65;;;8.80;;
70014;SDS011;57358;51.094;6.760;2023-04-08T04:47:13;10.77;;;7.78;;
70014;SDS011;57358;51.094;6.760;2023-04-08T04:49:39;17.52;;;9.95;;
70014;SDS011;57358;51.094;6.760;2023-04-08T04:52:05;13.20;;;8.40;;
70014;SDS011;57358;51.094;6.760;2023-04-08T04:54:32;11.93;;;9.32;;
70014;SDS011;57358;51.094;6.760;2023-04-08T04:56:58;13.95;;;10.13;;
70014;SDS011;57358;51.094;6.760;2023-04-08T04:59:26;13.48;;;8.68;;
70014;SDS011;57358;51.094;6.760;2023-04-08T05:01:52;14.88;;;9.30;;
70014;SDS011;57358;51.094;6.760;2023-04-08T05:04:19;10.75;;;8.05;;
70014;SDS011;57358;51.094;6.760;2023-04-08T05:06:45;13.50;;;9.50;;
70014;SDS011;57358;51.094;6.760;2023-04-08T05:09:12;14.73;;;9.20;;
70014;SDS011;57358;51.094;6.760;2023-04-08T05:11:38;18.85;;;11.00;;
70014;SDS011;57358;51.094;6.760;2023-04-08T05:14:05;21.10;;;11.52;;
70014;SDS011;57358;51.094;6.760;2023-04-08T05:16:32;16.77;;;10.48;;
70014;SDS011;57358;51.094;6.760;2023-04-08T05:18:59;21.17;;;9.15;;
70014;SDS011;57358;51.094;6.760;2023-04-08T05:21:26;19.13;;;10.75;;
70014;SDS011;57358;51.094;6.760;2023-04-08T05:23:53;16.05;;;10.98;;
70014;SDS011;57358;51.094;6.760;2023-04-08T05:26:19;22.85;;;10.80;;
70014;SDS011;57358;51.094;6.760;2023-04-08T05:28:49;16.65;;;11.10;;
70014;SDS011;57358;51.094;6.760;2023-04-08T05:31:17;12.52;;;9.75;;
70014;SDS011;57358;51.094;6.760;2023-04-08T05:33:44;17.17;;;9.77;;
70014;SDS011;57358;51.094;6.760;2023-04-08T05:36:11;14.52;;;11.40;;
70014;SDS011;57358;51.094;6.760;2023-04-08T05:38:38;17.67;;;10.07;;
70014;SDS011;57358;51.094;6.760;2023-04-08T05:41:06;18.92;;;10.90;;
70014;SDS011;57358;51.094;6.760;2023-04-08T05:43:32;17.05;;;10.35;;
70014;SDS011;57358;51.094;6.760;2023-04-08T05:45:59;45.90;;;11.15;;
70014;SDS011;57358;51.094;6.760;2023-04-08T05:48:25;14.95;;;9.80;;
70014;SDS011;57358;51.094;6.760;2023-04-08T05:50:52;18.30;;;11.45;;
70014;SDS011;57358;51.094;6.760;2023-04-08T05:53:18;21.92;;;11.73;;
70014;SDS011;57358;51.094;6.760;2023-04-08T05:55:44;17.10;;;11.20;;
70014;SDS011;57358;51.094;6.760;2023-04-08T05:58:13;18.65;;;11.23;;
70014;SDS011;57358;51.094;6.760;2023-04-08T06:00:41;20.65;;;11.32;;
70014;SDS011;57358;51.094;6.760;2023-04-08T06:03:07;24.35;;;12.13;;
70014;SDS011;57358;51.094;6.760;2023-04-08T06:05:34;11.68;;;8.70;;
70014;SDS011;57358;51.094;6.760;2023-04-08T06:08:00;13.73;;;9.18;;
70014;SDS011;57358;51.094;6.760;2023-04-08T06:10:27;21.58;;;11.90;;
70014;SDS011;57358;51.094;6.760;2023-04-08T06:12:53;11.38;;;9.63;;
70014;SDS011;57358;51.094;6.760;2023-04-08T06:15:20;17.42;;;11.07;;
70014;SDS011;57358;51.094;6.760;2023-04-08T06:17:47;16.67;;;12.93;;
70014;SDS011;57358;51.094;6.760;2023-04-08T06:20:13;16.25;;;10.00;;
70014;SDS011;57358;51.094;6.760;2023-04-08T06:22:40;18.88;;;12.57;;
70014;SDS011;57358;51.094;6.760;2023-04-08T06:25:06;16.55;;;10.63;;
70014;SDS011;57358;51.094;6.760;2023-04-08T06:27:33;15.52;;;11.60;;
70014;SDS011;57358;51.094;6.760;2023-04-08T06:29:59;20.88;;;11.30;;
70014;SDS011;57358;51.094;6.760;2023-04-08T06:32:26;15.55;;;10.60;;
70014;SDS011;57358;51.094;6.760;2023-04-08T06:34:52;19.20;;;12.45;;
70014;SDS011;57358;51.094;6.760;2023-04-08T06:37:18;22.42;;;11.32;;
70014;SDS011;57358;51.094;6.760;2023-04-08T06:39:45;24.02;;;11.82;;
70014;SDS011;57358;51.094;6.760;2023-04-08T06:42:12;30.33;;;12.95;;
70014;SDS011;57358;51.094;6.760;2023-04-08T06:44:38;20.27;;;11.40;;
70014;SDS011;57358;51.094;6.760;2023-04-08T06:47:04;15.65;;;9.60;;
70014;SDS011;57358;51.094;6.760;2023-04-08T06:49:31;22.50;;;12.20;;
70014;SDS011;57358;51.094;6.760;2023-04-08T06:51:57;16.45;;;11.38;;
70014;SDS011;57358;51.094;6.760;2023-04-08T06:54:24;25.80;;;14.55;;
70014;SDS011;57358;51.094;6.760;2023-04-08T06:56:50;20.08;;;11.93;;
70014;SDS011;57358;51.094;6.760;2023-04-08T06:59:17;21.13;;;14.52;;
70014;SDS011;57358;51.094;6.760;2023-04-08T07:01:43;27.48;;;15.10;;
70014;SDS011;57358;51.094;6.760;2023-04-08T07:04:09;20.85;;;13.15;;
70014;SDS011;57358;51.094;6.760;2023-04-08T07:06:36;22.13;;;13.05;;
70014;SDS011;57358;51.094;6.760;2023-04-08T07:09:03;24.77;;;12.40;;
70014;SDS011;57358;51.094;6.760;2023-04-08T07:11:29;28.35;;;13.55;;
70014;SDS011;57358;51.094;6.760;2023-04-08T07:13:56;20.08;;;12.82;;
70014;SDS011;57358;51.094;6.760;2023-04-08T07:16:22;20.73;;;14.10;;
70014;SDS011;57358;51.094;6.760;2023-04-08T07:18:49;26.00;;;13.38;;
70014;SDS011;57358;51.094;6.760;2023-04-08T07:21:17;16.08;;;12.05;;
70014;SDS011;57358;51.094;6.760;2023-04-08T07:23:43;25.15;;;12.23;;
70014;SDS011;57358;51.094;6.760;2023-04-08T07:26:10;15.85;;;10.80;;
70014;SDS011;57358;51.094;6.760;2023-04-08T07:28:36;15.88;;;11.07;;
70014;SDS011;57358;51.094;6.760;2023-04-08T07:31:16;21.77;;;14.00;;
70014;SDS011;57358;51.094;6.760;2023-04-08T07:33:44;15.55;;;11.98;;
70014;SDS011;57358;51.094;6.760;2023-04-08T07:36:11;24.08;;;13.73;;
70014;SDS011;57358;51.094;6.760;2023-04-08T07:38:39;20.52;;;10.73;;
70014;SDS011;57358;51.094;6.760;2023-04-08T07:41:07;15.68;;;11.20;;
70014;SDS011;57358;51.094;6.760;2023-04-08T07:43:34;23.75;;;11.48;;
70014;SDS011;57358;51.094;6.760;2023-04-08T07:46:05;21.42;;;10.68;;
70014;SDS011;57358;51.094;6.760;2023-04-08T07:48:33;24.98;;;12.95;;
70014;SDS011;57358;51.094;6.760;2023-04-08T07:51:03;30.27;;;13.73;;
70014;SDS011;57358;51.094;6.760;2023-04-08T07:53:35;24.60;;;12.63;;
70014;SDS011;57358;51.094;6.760;2023-04-08T07:56:02;25.77;;;13.73;;
70014;SDS011;57358;51.094;6.760;2023-04-08T07:58:29;28.48;;;14.63;;
70014;SDS011;57358;51.094;6.760;2023-04-08T08:00:57;26.20;;;13.57;;
70014;SDS011;57358;51.094;6.760;2023-04-08T08:03:24;31.08;;;16.85;;
70014;SDS011;57358;51.094;6.760;2023-04-08T08:05:51;27.60;;;14.20;;
70014;SDS011;57358;51.094;6.760;2023-04-08T08:08:18;32.90;;;16.23;;
70014;SDS011;57358;51.094;6.760;2023-04-08T08:10:44;27.42;;;15.18;;
70014;SDS011;57358;51.094;6.760;2023-04-08T08:13:11;24.25;;;12.40;;
70014;SDS011;57358;51.094;6.760;2023-04-08T08:15:41;30.67;;;14.90;;
70014;SDS011;57358;51.094;6.760;2023-04-08T08:18:08;21.10;;;12.95;;
70014;SDS011;57358;51.094;6.760;2023-04-08T08:20:34;32.92;;;15.40;;
70014;SDS011;57358;51.094;6.760;2023-04-08T08:23:01;30.48;;;13.70;;
70014;SDS011;57358;51.094;6.760;2023-04-08T08:25:28;31.80;;;15.00;;
70014;SDS011;57358;51.094;6.760;2023-04-08T08:27:54;27.40;;;12.98;;
70014;SDS011;57358;51.094;6.760;2023-04-08T08:30:20;34.80;;;16.25;;
70014;SDS011;57358;51.094;6.760;2023-04-08T08:32:47;51.05;;;15.68;;
70014;SDS011;57358;51.094;6.760;2023-04-08T08:35:14;25.80;;;15.68;;
70014;SDS011;57358;51.094;6.760;2023-04-08T08:37:41;33.90;;;15.18;;
70014;SDS011;57358;51.094;6.760;2023-04-08T08:40:08;31.92;;;13.75;;
70014;SDS011;57358;51.094;6.760;2023-04-08T08:42:34;32.58;;;14.13;;
70014;SDS011;57358;51.094;6.760;2023-04-08T08:45:02;24.73;;;13.65;;
70014;SDS011;57358;51.094;6.760;2023-04-08T08:47:29;31.77;;;15.65;;
70014;SDS011;57358;51.094;6.760;2023-04-08T08:49:56;31.27;;;15.80;;
70014;SDS011;57358;51.094;6.760;2023-04-08T08:52:22;27.67;;;13.43;;
70014;SDS011;57358;51.094;6.760;2023-04-08T08:54:56;26.25;;;15.15;;
70014;SDS011;57358;51.094;6.760;2023-04-08T08:57:23;24.63;;;12.00;;
70014;SDS011;57358;51.094;6.760;2023-04-08T08:59:50;26.98;;;12.90;;
70014;SDS011;57358;51.094;6.760;2023-04-08T09:02:23;22.23;;;11.77;;
70014;SDS011;57358;51.094;6.760;2023-04-08T09:07:24;31.17;;;15.90;;
70014;SDS011;57358;51.094;6.760;2023-04-08T09:09:52;21.33;;;12.38;;
70014;SDS011;57358;51.094;6.760;2023-04-08T09:12:19;18.77;;;13.35;;
70014;SDS011;57358;51.094;6.760;2023-04-08T09:14:46;27.63;;;13.35;;
70014;SDS011;57358;51.094;6.760;2023-04-08T09:17:13;25.58;;;13.63;;
70014;SDS011;57358;51.094;6.760;2023-04-08T09:22:53;15.38;;;10.45;;
70014;SDS011;57358;51.094;6.760;2023-04-08T09:25:28;20.33;;;11.68;;
70014;SDS011;57358;51.094;6.760;2023-04-08T09:27:57;16.23;;;10.70;;
70014;SDS011;57358;51.094;6.760;2023-04-08T09:30:25;19.00;;;10.77;;
70014;SDS011;57358;51.094;6.760;2023-04-08T09:32:53;18.85;;;10.50;;
70014;SDS011;57358;51.094;6.760;2023-04-08T09:35:21;12.30;;;8.70;;
70014;SDS011;57358;51.094;6.760;2023-04-08T09:37:49;11.95;;;10.13;;
70014;SDS011;57358;51.094;6.760;2023-04-08T09:40:16;12.00;;;9.48;;
70014;SDS011;57358;51.094;6.760;2023-04-08T09:42:47;11.55;;;9.98;;
70014;SDS011;57358;51.094;6.760;2023-04-08T09:45:17;14.18;;;11.18;;
70014;SDS011;57358;51.094;6.760;2023-04-08T09:47:51;11.98;;;8.98;;
70014;SDS011;57358;51.094;6.760;2023-04-08T09:50:35;14.75;;;9.00;;
70014;SDS011;57358;51.094;6.760;2023-04-08T09:53:09;10.70;;;9.38;;
70014;SDS011;57358;51.094;6.760;2023-04-08T09:55:40;14.70;;;9.25;;
70014;SDS011;57358;51.094;6.760;2023-04-08T09:58:14;12.77;;;9.30;;
70014;SDS011;57358;51.094;6.760;2023-04-08T10:00:46;13.73;;;9.65;;
70014;SDS011;57358;51.094;6.760;2023-04-08T10:06:02;9.75;;;8.40;;
70014;SDS011;57358;51.094;6.760;2023-04-08T10:08:29;16.10;;;11.38;;
70014;SDS011;57358;51.094;6.760;2023-04-08T10:10:58;15.85;;;10.68;;
70014;SDS011;57358;51.094;6.760;2023-04-08T10:13:24;16.83;;;12.25;;
70014;SDS011;57358;51.094;6.760;2023-04-08T10:16:16;15.18;;;11.88;;
70014;SDS011;57358;51.094;6.760;2023-04-08T10:18:42;20.23;;;10.85;;
70014;SDS011;57358;51.094;6.760;2023-04-08T10:24:05;16.23;;;10.57;;
70014;SDS011;57358;51.094;6.760;2023-04-08T10:29:23;19.50;;;13.23;;
70014;SDS011;57358;51.094;6.760;2023-04-08T10:31:55;25.70;;;13.13;;
70014;SDS011;57358;51.094;6.760;2023-04-08T10:34:25;22.85;;;12.27;;
70014;SDS011;57358;51.094;6.760;2023-04-08T10:36:53;16.65;;;13.13;;
70014;SDS011;57358;51.094;6.760;2023-04-08T10:39:21;19.85;;;12.77;;
70014;SDS011;57358;51.094;6.760;2023-04-08T10:41:48;22.35;;;13.73;;
70014;SDS011;57358;51.094;6.760;2023-04-08T10:44:23;20.70;;;14.10;;
70014;SDS011;57358;51.094;6.760;2023-04-08T10:46:52;19.63;;;15.07;;
70014;SDS011;57358;51.094;6.760;2023-04-08T10:49:19;25.70;;;15.15;;
70014;SDS011;57358;51.094;6.760;2023-04-08T10:51:47;22.58;;;14.35;;
70014;SDS011;57358;51.094;6.760;2023-04-08T10:54:15;29.25;;;15.27;;
70014;SDS011;57358;51.094;6.760;2023-04-08T10:56:46;22.30;;;14.95;;
70014;SDS011;57358;51.094;6.760;2023-04-08T10:59:26;27.33;;;17.17;;
70014;SDS011;57358;51.094;6.760;2023-04-08T11:02:00;27.33;;;15.93;;
70014;SDS011;57358;51.094;6.760;2023-04-08T11:04:27;28.75;;;15.73;;
70014;SDS011;57358;51.094;6.760;2023-04-08T11:06:54;30.80;;;16.65;;
70014;SDS011;57358;51.094;6.760;2023-04-08T11:09:21;30.00;;;16.33;;
70014;SDS011;57358;51.094;6.760;2023-04-08T11:11:47;19.80;;;13.35;;
70014;SDS011;57358;51.094;6.760;2023-04-08T11:14:14;24.98;;;16.33;;
70014;SDS011;57358;51.094;6.760;2023-04-08T11:16:44;33.83;;;17.50;;
70014;SDS011;57358;51.094;6.760;2023-04-08T11:19:11;28.88;;;14.85;;
70014;SDS011;57358;51.094;6.760;2023-04-08T11:21:38;31.75;;;15.38;;
70014;SDS011;57358;51.094;6.760;2023-04-08T11:24:05;26.85;;;15.68;;
70014;SDS011;57358;51.094;6.760;2023-04-08T11:26:37;31.55;;;15.43;;
70014;SDS011;57358;51.094;6.760;2023-04-08T11:29:04;39.35;;;16.52;;
70014;SDS011;57358;51.094;6.760;2023-04-08T11:31:31;28.73;;;15.63;;
70014;SDS011;57358;51.094;6.760;2023-04-08T11:33:59;38.00;;;15.05;;
70014;SDS011;57358;51.094;6.760;2023-04-08T11:36:27;43.50;;;16.67;;
70014;SDS011;57358;51.094;6.760;2023-04-08T11:38:54;29.95;;;14.75;;
70014;SDS011;57358;51.094;6.760;2023-04-08T11:41:20;26.38;;;15.00;;
70014;SDS011;57358;51.094;6.760;2023-04-08T11:43:51;30.23;;;16.55;;
70014;SDS011;57358;51.094;6.760;2023-04-08T11:46:18;26.58;;;14.27;;
70014;SDS011;57358;51.094;6.760;2023-04-08T11:48:58;22.73;;;13.40;;
70014;SDS011;57358;51.094;6.760;2023-04-08T11:51:26;30.58;;;16.60;;
70014;SDS011;57358;51.094;6.760;2023-04-08T11:53:53;25.40;;;14.88;;
70014;SDS011;57358;51.094;6.760;2023-04-08T11:56:22;23.40;;;13.18;;
70014;SDS011;57358;51.094;6.760;2023-04-08T11:58:50;36.63;;;14.82;;
70014;SDS011;57358;51.094;6.760;2023-04-08T12:01:17;36.10;;;13.57;;
70014;SDS011;57358;51.094;6.760;2023-04-08T12:03:56;23.73;;;13.30;;
70014;SDS011;57358;51.094;6.760;2023-04-08T12:06:24;30.60;;;13.70;;
70014;SDS011;57358;51.094;6.760;2023-04-08T12:08:52;28.90;;;15.27;;
70014;SDS011;57358;51.094;6.760;2023-04-08T12:11:22;30.52;;;16.67;;
70014;SDS011;57358;51.094;6.760;2023-04-08T12:13:49;29.20;;;15.25;;
70014;SDS011;57358;51.094;6.760;2023-04-08T12:16:16;34.00;;;16.83;;
70014;SDS011;57358;51.094;6.760;2023-04-08T12:18:43;29.75;;;15.75;;
70014;SDS011;57358;51.094;6.760;2023-04-08T12:21:10;33.55;;;15.70;;
70014;SDS011;57358;51.094;6.760;2023-04-08T12:23:36;24.77;;;15.60;;
70014;SDS011;57358;51.094;6.760;2023-04-08T12:26:03;23.00;;;14.20;;
70014;SDS011;57358;51.094;6.760;2023-04-08T12:28:32;24.85;;;14.15;;
70014;SDS011;57358;51.094;6.760;2023-04-08T12:31:00;23.98;;;13.75;;
70014;SDS011;57358;51.094;6.760;2023-04-08T12:33:26;28.27;;;14.60;;
70014;SDS011;57358;51.094;6.760;2023-04-08T12:35:53;28.58;;;16.67;;
70014;SDS011;57358;51.094;6.760;2023-04-08T12:38:19;31.25;;;13.13;;
70014;SDS011;57358;51.094;6.760;2023-04-08T12:40:46;26.33;;;14.43;;
70014;SDS011;57358;51.094;6.760;2023-04-08T12:43:15;24.50;;;14.98;;
70014;SDS011;57358;51.094;6.760;2023-04-08T12:45:41;21.05;;;13.23;;
70014;SDS011;57358;51.094;6.760;2023-04-08T12:48:08;29.25;;;14.02;;
70014;SDS011;57358;51.094;6.760;2023-04-08T12:50:35;25.65;;;13.00;;
70014;SDS011;57358;51.094;6.760;2023-04-08T12:53:01;24.58;;;12.98;;
70014;SDS011;57358;51.094;6.760;2023-04-08T12:55:28;21.60;;;12.77;;
70014;SDS011;57358;51.094;6.760;2023-04-08T12:57:54;21.63;;;11.77;;
70014;SDS011;57358;51.094;6.760;2023-04-08T13:00:21;13.23;;;10.05;;
70014;SDS011;57358;51.094;6.760;2023-04-08T13:02:48;10.15;;;8.82;;
70014;SDS011;57358;51.094;6.760;2023-04-08T13:05:14;10.05;;;7.22;;
70014;SDS011;57358;51.094;6.760;2023-04-08T13:07:42;9.77;;;8.32;;
70014;SDS011;57358;51.094;6.760;2023-04-08T13:10:08;10.55;;;7.15;;
70014;SDS011;57358;51.094;6.760;2023-04-08T13:12:35;8.18;;;6.38;;
70014;SDS011;57358;51.094;6.760;2023-04-08T13:15:05;8.05;;;6.70;;
70014;SDS011;57358;51.094;6.760;2023-04-08T13:17:32;7.68;;;6.60;;
70014;SDS011;57358;51.094;6.760;2023-04-08T13:19:58;8.63;;;6.50;;
70014;SDS011;57358;51.094;6.760;2023-04-08T13:22:25;8.43;;;6.93;;
70014;SDS011;57358;51.094;6.760;2023-04-08T13:24:54;6.60;;;6.07;;
70014;SDS011;57358;51.094;6.760;2023-04-08T13:27:22;6.50;;;6.05;;
70014;SDS011;57358;51.094;6.760;2023-04-08T13:29:48;7.22;;;6.53;;
70014;SDS011;57358;51.094;6.760;2023-04-08T13:32:14;8.02;;;6.88;;
70014;SDS011;57358;51.094;6.760;2023-04-08T13:34:41;7.97;;;6.32;;
70014;SDS011;57358;51.094;6.760;2023-04-08T13:37:08;6.82;;;6.22;;
70014;SDS011;57358;51.094;6.760;2023-04-08T13:39:35;7.97;;;7.28;;
70014;SDS011;57358;51.094;6.760;2023-04-08T13:42:01;6.32;;;5.82;;
70014;SDS011;57358;51.094;6.760;2023-04-08T13:44:27;6.47;;;5.97;;
70014;SDS011;57358;51.094;6.760;2023-04-08T13:46:54;7.78;;;6.35;;
70014;SDS011;57358;51.094;6.760;2023-04-08T13:49:20;6.07;;;5.43;;
70014;SDS011;57358;51.094;6.760;2023-04-08T13:51:47;7.07;;;6.40;;
70014;SDS011;57358;51.094;6.760;2023-04-08T13:54:13;6.03;;;5.53;;
70014;SDS011;57358;51.094;6.760;2023-04-08T13:56:39;6.55;;;5.95;;
70014;SDS011;57358;51.094;6.760;2023-04-08T13:59:06;7.53;;;6.32;;
70014;SDS011;57358;51.094;6.760;2023-04-08T14:01:32;7.88;;;6.68;;
70014;SDS011;57358;51.094;6.760;2023-04-08T14:03:59;6.60;;;6.00;;
70014;SDS011;57358;51.094;6.760;2023-04-08T14:06:26;7.15;;;6.38;;
70014;SDS011;57358;51.094;6.760;2023-04-08T14:08:52;7.20;;;6.57;;
70014;SDS011;57358;51.094;6.760;2023-04-08T14:11:19;6.55;;;5.95;;
70014;SDS011;57358;51.094;6.760;2023-04-08T14:13:46;12.95;;;6.47;;
70014;SDS011;57358;51.094;6.760;2023-04-08T14:16:12;20.45;;;8.85;;
70014;SDS011;57358;51.094;6.760;2023-04-08T14:18:39;12.25;;;7.85;;
70014;SDS011;57358;51.094;6.760;2023-04-08T14:21:05;7.65;;;6.93;;
70014;SDS011;57358;51.094;6.760;2023-04-08T14:23:32;7.72;;;6.97;;
70014;SDS011;57358;51.094;6.760;2023-04-08T14:25:59;10.68;;;7.35;;
70014;SDS011;57358;51.094;6.760;2023-04-08T14:28:26;7.45;;;6.15;;
70014;SDS011;57358;51.094;6.760;2023-04-08T14:30:53;9.68;;;7.25;;
70014;SDS011;57358;51.094;6.760;2023-04-08T14:33:19;7.38;;;6.63;;
70014;SDS011;57358;51.094;6.760;2023-04-08T14:35:46;7.28;;;6.50;;
70014;SDS011;57358;51.094;6.760;2023-04-08T14:38:12;8.38;;;7.18;;
70014;SDS011;57358;51.094;6.760;2023-04-08T14:40:39;7.97;;;7.25;;
70014;SDS011;57358;51.094;6.760;2023-04-08T14:43:05;11.73;;;7.13;;
70014;SDS011;57358;51.094;6.760;2023-04-08T14:45:32;22.13;;;8.55;;
70014;SDS011;57358;51.094;6.760;2023-04-08T14:47:58;8.18;;;7.43;;
70014;SDS011;57358;51.094;6.760;2023-04-08T14:50:25;8.52;;;7.40;;
70014;SDS011;57358;51.094;6.760;2023-04-08T14:52:51;9.45;;;8.00;;